Time;durP1;ratioP1;P1;durP2;ratioP2;P2;SDS_P1;SDS_P2;PMS_P1;PMS_P2;Temp;Humidity;BMP_temperature;BMP_pressure;BME280_temperature;BME280_humidity;BME280_pressure;Samples;Min_cycle;Max_cycle;Signal;HPM_P1;HPM_P2
2021/10/03 00:00:17;;;;;;;0.60;0.60;;;21.30;50.30;;;25.27;33.52;99814.97;5115084;28;20043;-10
2021/10/03 00:02:47;;;;;;;0.68;0.63;;;21.30;50.30;;;25.29;33.42;99807.66;5116104;28;20483;-10
2021/10/03 00:05:15;;;;;;;0.60;0.60;;;21.30;50.30;;;25.29;33.40;99801.44;5116401;28;20047;-10
2021/10/03 00:07:50;;;;;;;0.60;0.60;;;21.30;50.30;;;25.26;33.55;99797.25;5115660;28;20047;-9
2021/10/03 00:10:22;;;;;;;0.65;0.65;;;21.30;50.30;;;25.26;33.53;99791.00;5115947;28;20506;-10
2021/10/03 00:12:48;;;;;;;0.82;0.50;;;21.30;50.30;;;25.25;33.49;99774.13;5115968;28;20047;-10
2021/10/03 00:15:17;;;;;;;0.55;0.55;;;21.30;50.30;;;25.28;33.46;99773.00;5115902;28;20048;-10
2021/10/03 00:17:44;;;;;;;0.52;0.52;;;21.30;50.20;;;25.28;33.53;99765.00;5115449;28;20043;-10
2021/10/03 00:20:12;;;;;;;0.63;0.63;;;21.30;50.20;;;25.26;33.40;99759.78;5115951;28;20079;-10
2021/10/03 00:22:38;;;;;;;0.57;0.57;;;21.30;50.20;;;25.26;33.55;99748.19;5115745;28;20044;-10
2021/10/03 00:25:07;;;;;;;0.57;0.57;;;21.30;50.20;;;25.26;33.57;99745.50;5097238;28;20097;-10
2021/10/03 00:27:33;;;;;;;0.70;0.70;;;21.30;50.20;;;25.24;33.46;99744.84;5097087;28;20475;-11
2021/10/03 00:29:59;;;;;;;0.65;0.63;;;21.30;50.70;;;25.28;33.56;99756.97;5097980;28;20051;-10
2021/10/03 00:32:26;;;;;;;0.70;0.70;;;21.30;50.20;;;25.28;33.34;99762.31;5115663;28;20043;-10
2021/10/03 00:34:53;;;;;;;0.60;0.60;;;21.30;50.30;;;25.24;33.53;99755.53;5115828;28;20048;-10
2021/10/03 00:37:20;;;;;;;0.63;0.63;;;21.30;50.30;;;25.25;33.57;99749.19;5115633;28;20113;-12
2021/10/03 00:39:46;;;;;;;0.60;0.60;;;21.30;50.30;;;25.25;33.67;99751.88;5114056;28;20092;-10
2021/10/03 00:42:12;;;;;;;0.50;0.50;;;21.30;50.30;;;25.26;33.51;99754.44;5115368;28;20069;-10
2021/10/03 00:44:38;;;;;;;0.68;0.68;;;21.30;50.30;;;25.28;33.56;99746.25;5115320;28;20518;-10
2021/10/03 00:47:03;;;;;;;0.52;0.52;;;21.30;50.30;;;25.26;33.57;99741.06;5094861;28;20052;-10
2021/10/03 00:49:33;;;;;;;0.60;0.50;;;21.30;50.30;;;25.25;33.54;99739.34;5115317;28;20052;-10
2021/10/03 00:52:01;;;;;;;0.60;0.55;;;21.30;50.30;;;25.27;33.59;99731.19;5115219;28;20403;-10
2021/10/03 00:54:27;;;;;;;0.60;0.60;;;21.30;50.20;;;25.25;33.41;99728.63;5115094;28;20134;-10
2021/10/03 00:56:53;;;;;;;0.60;0.60;;;21.30;50.20;;;25.27;33.47;99728.50;5115304;28;20058;-10
2021/10/03 00:59:19;;;;;;;0.60;0.60;;;21.30;50.30;;;25.25;33.45;99704.56;5113009;28;20056;-10
2021/10/03 01:01:45;;;;;;;0.60;0.60;;;21.30;50.30;;;25.26;33.54;99716.09;5115432;28;20063;-10
2021/10/03 01:04:11;;;;;;;0.47;0.45;;;21.30;50.30;;;25.25;33.49;99709.91;5115130;28;20047;-10
2021/10/03 01:06:37;;;;;;;0.70;0.70;;;21.30;50.30;;;25.28;33.54;99712.31;5114937;28;20058;-10
2021/10/03 01:09:03;;;;;;;0.60;0.60;;;21.30;50.30;;;25.26;33.52;99703.59;5094422;28;20040;-10
2021/10/03 01:11:29;;;;;;;0.57;0.57;;;21.20;50.30;;;25.28;33.54;99706.13;5115548;28;20047;-10
2021/10/03 01:13:55;;;;;;;0.52;0.52;;;21.30;50.30;;;25.28;33.62;99711.47;5130700;28;20571;-10
2021/10/03 01:16:20;;;;;;;0.60;0.60;;;21.30;50.30;;;25.25;33.63;99699.19;5114853;28;20054;-10
2021/10/03 01:18:46;;;;;;;0.60;0.60;;;21.30;50.20;;;25.25;33.49;99688.50;5114720;28;20138;-10
2021/10/03 01:21:12;;;;;;;0.60;0.60;;;21.30;50.30;;;25.27;33.47;99697.25;5096611;28;20054;-10
2021/10/03 01:23:38;;;;;;;0.40;0.40;;;21.30;50.30;;;25.26;33.62;99687.56;5114879;28;20048;-10
2021/10/03 01:26:05;;;;;;;0.63;0.60;;;21.30;50.30;;;25.27;33.57;99675.00;5114595;28;20101;-10
2021/10/03 01:28:31;;;;;;;0.60;0.60;;;21.30;50.30;;;25.25;33.34;99672.44;5114600;28;20047;-10
2021/10/03 01:30:57;;;;;;;0.60;0.60;;;21.30;50.30;;;25.26;33.58;99675.94;5096375;28;20475;-10
2021/10/03 01:33:27;;;;;;;0.93;0.70;;;21.30;50.20;;;25.26;33.56;99678.63;5114715;28;20051;-10
2021/10/03 01:35:53;;;;;;;0.68;0.68;;;21.30;50.20;;;25.27;33.46;99675.84;5114468;28;20052;-10
2021/10/03 01:38:19;;;;;;;0.70;0.70;;;21.40;50.30;;;25.28;33.47;99684.72;5114450;28;20059;-10
2021/10/03 01:40:49;;;;;;;0.50;0.50;;;21.30;50.20;;;25.26;33.55;99663.47;5114818;28;20077;-10
2021/10/03 01:43:16;;;;;;;0.55;0.55;;;21.30;50.30;;;25.26;33.62;99668.81;5114449;28;20040;-10
2021/10/03 01:45:42;;;;;;;0.60;0.60;;;21.30;50.30;;;25.28;33.58;99666.00;5114236;28;20043;-10
2021/10/03 01:48:10;;;;;;;0.60;0.60;;;21.30;50.30;;;25.28;33.63;99660.66;5114266;28;20075;-10
2021/10/03 01:50:44;;;;;;;0.60;0.60;;;21.30;50.30;;;25.26;33.44;99667.94;5113990;28;20048;-10
2021/10/03 01:53:13;;;;;;;0.60;0.60;;;21.30;50.40;;;25.28;33.63;99669.50;5114450;28;20446;-10
2021/10/03 01:55:40;;;;;;;0.60;0.60;;;21.30;50.30;;;25.26;33.44;99671.50;5114248;28;20056;-10
2021/10/03 01:58:07;;;;;;;0.45;0.45;;;21.30;50.40;;;25.27;33.50;99666.97;5113869;28;20373;-10
2021/10/03 02:00:34;;;;;;;0.60;0.60;;;21.30;50.40;;;25.29;33.54;99670.34;5114256;28;20046;-10
2021/10/03 02:03:03;;;;;;;2.20;0.88;;;21.30;50.40;;;25.29;33.63;99662.31;5114228;28;20051;-10
2021/10/03 02:05:38;;;;;;;0.52;0.52;;;21.30;50.30;;;25.29;33.40;99663.19;5114118;28;20062;-10
2021/10/03 02:08:08;;;;;;;0.60;0.60;;;21.30;50.30;;;25.28;33.49;99666.84;5113917;28;20132;-10
2021/10/03 02:10:36;;;;;;;0.52;0.52;;;21.30;50.30;;;25.29;33.59;99665.84;5114244;28;20047;-10
2021/10/03 02:13:03;;;;;;;0.75;0.75;;;21.30;50.20;;;25.27;33.46;99651.75;5095760;28;20082;-10
2021/10/03 02:15:29;;;;;;;0.70;0.70;;;21.30;50.30;;;25.29;33.54;99649.78;5113959;28;20047;-10
2021/10/03 02:17:55;;;;;;;0.60;0.60;;;21.30;50.20;;;25.29;33.46;99654.28;5113988;28;20054;-10
2021/10/03 02:20:22;;;;;;;0.65;0.65;;;21.30;50.30;;;25.26;33.55;99642.06;5113680;28;20069;-10
2021/10/03 02:22:50;;;;;;;0.70;0.70;;;21.30;50.30;;;25.28;33.44;99631.22;5095999;28;20078;-10
2021/10/03 02:25:17;;;;;;;0.60;0.60;;;21.30;50.40;;;25.27;33.59;99638.38;5113821;28;20406;-10
2021/10/03 02:27:43;;;;;;;0.98;0.85;;;21.30;50.30;;;25.29;33.32;99628.41;5113695;28;20508;-10
2021/10/03 02:30:10;;;;;;;0.70;0.70;;;21.30;50.30;;;25.27;33.52;99630.34;5114087;28;20403;-10
2021/10/03 02:32:36;;;;;;;0.50;0.50;;;21.30;50.30;;;25.27;33.45;99627.69;5113515;28;20043;-10
2021/10/03 02:35:05;;;;;;;0.60;0.60;;;21.30;50.30;;;25.28;33.48;99625.88;5113743;28;20047;-10
2021/10/03 02:37:32;;;;;;;1.02;0.80;;;21.30;50.30;;;25.28;33.42;99625.88;5111981;28;20059;-10
2021/10/03 02:39:58;;;;;;;0.60;0.60;;;21.30;50.30;;;25.28;33.49;99626.69;5113611;28;20044;-10
2021/10/03 02:42:24;;;;;;;0.60;0.60;;;21.30;50.20;;;25.30;33.51;99621.19;5113512;28;20048;-9
2021/10/03 02:44:51;;;;;;;0.70;0.70;;;21.30;50.30;;;25.27;33.41;99625.00;5113538;28;20055;-10
2021/10/03 02:47:18;;;;;;;0.80;0.70;;;21.30;50.20;;;25.27;33.51;99621.50;5113448;28;20051;-10
2021/10/03 02:49:45;;;;;;;0.68;0.63;;;21.30;50.20;;;25.27;33.51;99627.69;5113266;28;20062;-10
2021/10/03 02:52:13;;;;;;;0.77;0.77;;;21.30;50.20;;;25.27;33.38;99621.50;5113445;28;20075;-10
2021/10/03 02:54:41;;;;;;;0.63;0.60;;;21.30;50.20;;;25.28;33.45;99624.03;5113120;28;20044;-10
2021/10/03 02:57:08;;;;;;;0.93;0.90;;;21.30;50.30;;;25.28;33.54;99629.38;5113345;28;20055;-10
2021/10/03 02:59:34;;;;;;;0.70;0.70;;;21.30;50.30;;;25.30;33.51;99637.25;5113338;28;20047;-10
2021/10/03 03:02:00;;;;;;;0.80;0.80;;;21.30;50.30;;;25.30;33.61;99626.56;5112219;28;20039;-10
2021/10/03 03:04:26;;;;;;;0.65;0.63;;;21.30;50.30;;;25.28;33.60;99632.06;5113203;28;20126;-10
2021/10/03 03:06:52;;;;;;;0.73;0.73;;;21.30;50.30;;;25.29;33.50;99632.88;5113472;28;20125;-10
2021/10/03 03:09:18;;;;;;;0.90;0.80;;;21.30;50.20;;;25.31;33.48;99638.94;5094682;28;20492;-10
2021/10/03 03:11:44;;;;;;;0.60;0.60;;;21.30;50.20;;;25.29;33.55;99641.78;5113201;28;20079;-10
2021/10/03 03:14:10;;;;;;;0.80;0.80;;;21.30;50.30;;;25.30;33.65;99648.78;5113180;28;20480;-10
2021/10/03 03:16:45;;;;;;;0.60;0.60;;;21.30;50.30;;;25.31;33.56;99633.59;5113387;28;20044;-10
2021/10/03 03:19:11;;;;;;;0.80;0.80;;;21.30;50.30;;;25.29;33.35;99633.75;5112852;28;20043;-10
2021/10/03 03:21:38;;;;;;;0.60;0.60;;;21.30;50.30;;;25.30;33.58;99646.09;5129108;28;20053;-10
2021/10/03 03:24:05;;;;;;;1.00;0.90;;;21.30;50.20;;;25.29;33.45;99638.22;5113559;28;20386;-10
2021/10/03 03:26:32;;;;;;;0.80;0.80;;;21.40;50.30;;;25.31;33.58;99639.78;5112897;28;20100;-10
2021/10/03 03:28:58;;;;;;;0.63;0.63;;;21.30;50.20;;;25.29;33.44;99646.25;5112706;28;20056;-10
2021/10/03 03:31:24;;;;;;;0.75;0.75;;;21.30;50.20;;;25.31;33.53;99637.09;5110810;28;20043;-10
2021/10/03 03:33:49;;;;;;;0.55;0.55;;;21.30;50.30;;;25.28;33.48;99639.25;5113117;28;20105;-10
2021/10/03 03:36:15;;;;;;;0.70;0.70;;;21.30;50.20;;;25.28;33.42;99641.91;5112932;28;20054;-10
2021/10/03 03:38:43;;;;;;;0.73;0.70;;;21.30;50.20;;;25.32;33.48;99643.28;5112760;28;20127;-10
2021/10/03 03:41:09;;;;;;;0.85;0.70;;;21.30;50.30;;;25.29;33.51;99640.91;5112900;28;20051;-10
2021/10/03 03:43:35;;;;;;;1.15;1.05;;;21.30;50.30;;;25.29;33.61;99630.22;5112768;28;20055;-10
2021/10/03 03:46:02;;;;;;;0.65;0.65;;;21.30;50.20;;;25.29;33.46;99639.09;5113159;28;20051;-10
2021/10/03 03:48:28;;;;;;;0.75;0.75;;;21.30;50.30;;;25.31;33.50;99637.09;5112696;28;20047;-10
2021/10/03 03:50:54;;;;;;;0.70;0.70;;;21.30;50.30;;;25.30;33.59;99638.09;5112594;28;20089;-10
2021/10/03 03:53:19;;;;;;;0.75;0.75;;;21.30;50.30;;;25.30;33.46;99648.78;5112653;28;20051;-10
2021/10/03 03:55:45;;;;;;;0.95;0.70;;;21.30;50.30;;;25.29;33.43;99641.78;5112934;28;20079;-9
2021/10/03 03:58:11;;;;;;;0.68;0.60;;;21.30;50.30;;;25.30;33.50;99631.91;5112333;28;20066;-10
2021/10/03 04:00:37;;;;;;;0.90;0.80;;;21.30;50.30;;;25.31;33.39;99638.94;5112581;28;20052;-10
2021/10/03 04:03:03;;;;;;;0.80;0.80;;;21.30;50.30;;;25.30;33.65;99634.56;5112457;28;20043;-10
2021/10/03 04:05:28;;;;;;;0.80;0.80;;;21.30;50.40;;;25.29;33.52;99643.59;5112451;28;20093;-10
2021/10/03 04:07:54;;;;;;;0.75;0.75;;;21.30;50.30;;;25.31;33.42;99628.25;5112685;28;20089;-10
2021/10/03 04:10:20;;;;;;;0.75;0.75;;;21.30;50.30;;;25.30;33.63;99626.56;5112486;28;20055;-10
2021/10/03 04:12:46;;;;;;;1.50;0.60;;;21.30;50.30;;;25.31;33.49;99634.44;5113164;28;20105;-10
2021/10/03 04:15:12;;;;;;;0.80;0.80;;;21.30;50.30;;;25.30;33.55;99635.41;5115722;28;20048;-10
2021/10/03 04:17:38;;;;;;;0.70;0.70;;;21.30;50.30;;;25.31;33.63;99637.09;5115849;28;20058;-10
2021/10/03 04:20:06;;;;;;;1.13;1.02;;;21.30;50.30;;;25.31;33.41;99650.47;5115807;28;20135;-10
2021/10/03 04:22:33;;;;;;;0.70;0.70;;;21.30;50.30;;;25.30;33.49;99635.41;5115988;28;20052;-10
2021/10/03 04:24:58;;;;;;;0.70;0.70;;;21.30;50.30;;;25.31;33.55;99653.16;5097450;28;20043;-10
2021/10/03 04:27:24;;;;;;;0.85;0.80;;;21.30;50.30;;;25.30;33.62;99647.94;5116255;28;20054;-10
2021/10/03 04:29:50;;;;;;;0.70;0.70;;;21.30;50.30;;;25.31;33.54;99647.81;5115399;28;20047;-10
2021/10/03 04:32:17;;;;;;;0.60;0.60;;;21.30;50.40;;;25.29;33.47;99646.25;5116006;28;20121;-10
2021/10/03 04:34:46;;;;;;;0.73;0.70;;;21.30;50.30;;;25.31;33.69;99646.97;5115634;28;20047;-10
2021/10/03 04:37:11;;;;;;;0.82;0.82;;;21.30;50.30;;;25.28;33.50;99650.78;5115591;28;20051;-10
2021/10/03 04:39:37;;;;;;;0.80;0.80;;;21.30;50.40;;;25.31;33.55;99650.47;5115423;28;20055;-10
2021/10/03 04:42:04;;;;;;;0.70;0.70;;;21.30;50.40;;;25.31;33.51;99646.97;5115319;28;20055;-10
2021/10/03 04:44:30;;;;;;;0.75;0.75;;;21.30;50.30;;;25.29;33.54;99644.44;5115781;28;20064;-10
2021/10/03 04:46:56;;;;;;;0.70;0.70;;;21.30;50.30;;;25.29;33.45;99647.13;5115223;28;20048;-10
2021/10/03 04:49:21;;;;;;;0.50;0.50;;;21.30;50.20;;;25.29;33.43;99648.94;5094792;28;20426;-10
2021/10/03 04:51:47;;;;;;;0.65;0.65;;;21.30;50.30;;;25.29;33.51;99652.47;5115296;28;20051;-10
2021/10/03 04:54:13;;;;;;;0.73;0.70;;;21.30;50.30;;;25.32;33.49;99648.63;5115346;28;20044;-10
2021/10/03 04:56:39;;;;;;;0.80;0.80;;;21.30;50.30;;;25.32;33.48;99648.63;5115425;28;20066;-10
2021/10/03 04:59:05;;;;;;;0.80;0.80;;;21.30;50.30;;;25.30;33.41;99642.59;5115425;28;20086;-9
2021/10/03 05:01:31;;;;;;;1.48;0.77;;;21.30;50.30;;;25.28;33.57;99637.41;5115209;28;20086;-10
2021/10/03 05:03:57;;;;;;;0.95;0.85;;;21.30;50.30;;;25.31;33.54;99652.31;5115353;28;20486;-10
2021/10/03 05:06:22;;;;;;;0.73;0.70;;;21.30;50.30;;;25.30;33.46;99646.09;5114988;28;20392;-10
2021/10/03 05:08:49;;;;;;;0.60;0.60;;;21.30;50.30;;;25.32;33.60;99640.59;5115293;28;20403;-10
2021/10/03 05:11:14;;;;;;;0.93;0.82;;;21.30;50.30;;;25.31;33.41;99633.59;5115580;28;20418;-10
2021/10/03 05:13:40;;;;;;;0.80;0.80;;;21.30;50.20;;;25.29;33.51;99635.56;5115266;28;20104;-10
2021/10/03 05:16:06;;;;;;;0.73;0.73;;;21.30;50.30;;;25.31;33.51;99638.94;5114885;28;20135;-10
2021/10/03 05:18:36;;;;;;;0.70;0.70;;;21.30;50.30;;;25.29;33.57;99646.25;5115111;28;20044;-10
2021/10/03 05:21:05;;;;;;;0.90;0.90;;;21.30;50.30;;;25.29;33.52;99646.25;5114781;28;20119;-10
2021/10/03 05:23:32;;;;;;;0.90;0.70;;;21.30;50.30;;;25.28;33.58;99655.28;5130750;28;20047;-10
2021/10/03 05:25:58;;;;;;;1.15;0.85;;;21.30;50.30;;;25.31;33.60;99652.31;5113713;28;20048;-10
2021/10/03 05:28:25;;;;;;;1.00;0.90;;;21.30;50.30;;;25.30;33.53;99645.28;5114697;28;20054;-10
2021/10/03 05:30:50;;;;;;;0.80;0.80;;;21.30;50.30;;;25.30;33.54;99643.44;5114621;28;20056;-10
2021/10/03 05:33:16;;;;;;;0.75;0.70;;;21.30;50.30;;;25.31;33.56;99652.31;5115156;28;20055;-10
2021/10/03 05:35:43;;;;;;;0.70;0.70;;;21.30;50.30;;;25.30;33.54;99646.09;5114605;28;20044;-10
2021/10/03 05:38:09;;;;;;;0.88;0.77;;;21.30;50.20;;;25.29;33.67;99652.47;5114867;28;20044;-10
2021/10/03 05:40:35;;;;;;;0.85;0.80;;;21.30;50.20;;;25.29;33.65;99641.78;5114333;28;20054;-10
2021/10/03 05:43:01;;;;;;;1.48;1.10;;;21.40;50.30;;;25.30;33.67;99645.28;5114486;28;20039;-10
2021/10/03 05:45:27;;;;;;;0.60;0.60;;;21.30;50.40;;;25.28;33.51;99644.59;5114780;28;20047;-10
2021/10/03 05:47:53;;;;;;;0.70;0.70;;;21.30;50.40;;;25.32;33.47;99645.97;5114324;28;20043;-10
2021/10/03 05:50:19;;;;;;;0.70;0.70;;;21.30;50.40;;;25.28;33.70;99636.56;5114135;28;20050;-10
2021/10/03 05:52:44;;;;;;;0.80;0.80;;;21.30;50.40;;;25.30;33.45;99645.28;5114311;28;20040;-10
2021/10/03 05:55:10;;;;;;;0.73;0.70;;;21.30;50.30;;;25.29;33.63;99633.75;5114201;28;20084;-10
2021/10/03 05:57:36;;;;;;;0.88;0.88;;;21.30;50.30;;;25.32;33.62;99641.44;5114278;28;20054;-10
2021/10/03 06:00:04;;;;;;;0.95;0.88;;;21.30;50.90;;;25.31;33.53;99637.09;5114228;28;20043;-10
2021/10/03 06:02:30;;;;;;;0.82;0.82;;;21.30;50.30;;;25.32;33.54;99637.94;5114218;28;20043;-10
2021/10/03 06:04:56;;;;;;;0.90;0.90;;;21.40;50.30;;;25.31;33.44;99644.28;5114194;28;20123;-10
2021/10/03 06:07:23;;;;;;;0.70;0.70;;;21.30;50.30;;;25.32;33.58;99632.59;5114102;28;20055;-10
2021/10/03 06:09:48;;;;;;;0.93;0.80;;;21.30;50.30;;;25.29;33.53;99635.56;5114135;28;20533;-10
2021/10/03 06:12:15;;;;;;;0.80;0.80;;;21.30;50.30;;;25.33;33.57;99637.78;5114310;28;20052;-10
2021/10/03 06:14:41;;;;;;;1.15;0.90;;;21.30;50.30;;;25.31;33.52;99637.09;5114002;28;20035;-10
2021/10/03 06:17:07;;;;;;;0.90;0.90;;;21.30;50.20;;;25.35;33.52;99644.81;5113834;28;20384;-10
2021/10/03 06:19:33;;;;;;;0.90;0.90;;;21.40;50.30;;;25.34;33.62;99649.31;5113748;28;20129;-10
2021/10/03 06:22:01;;;;;;;0.80;0.80;;;21.30;50.30;;;25.33;33.54;99637.78;5113785;28;20047;-10
2021/10/03 06:24:27;;;;;;;0.60;0.60;;;21.30;50.20;;;25.32;33.51;99651.31;5114147;28;20051;-10
2021/10/03 06:26:52;;;;;;;0.80;0.70;;;21.40;50.20;;;25.34;33.50;99643.97;5095587;28;20043;-10
2021/10/03 06:29:18;;;;;;;0.93;0.90;;;21.40;50.20;;;25.35;33.43;99651.00;5113529;28;20078;-10
2021/10/03 06:31:44;;;;;;;0.70;0.70;;;21.40;50.20;;;25.34;33.53;99646.63;5113638;28;20051;-10
2021/10/03 06:34:10;;;;;;;0.70;0.70;;;21.40;50.20;;;25.36;33.54;99644.69;5113804;28;20043;-10
2021/10/03 06:36:36;;;;;;;0.70;0.70;;;21.40;50.20;;;25.36;33.57;99657.19;5113597;28;20079;-10
2021/10/03 06:39:03;;;;;;;0.90;0.90;;;21.40;50.20;;;25.39;33.55;99659.56;5113961;28;20433;-10
2021/10/03 06:41:28;;;;;;;0.77;0.77;;;21.40;50.20;;;25.37;33.45;99640.16;5113598;28;20533;-11
2021/10/03 06:43:54;;;;;;;0.80;0.80;;;21.40;50.20;;;25.40;33.48;99650.56;5113462;28;20048;-10
2021/10/03 06:46:20;;;;;;;0.90;0.90;;;21.40;50.20;;;25.40;33.35;99661.25;5113449;28;20510;-10
2021/10/03 06:48:46;;;;;;;0.90;0.90;;;21.40;50.20;;;25.38;33.47;99661.41;5095080;28;20419;-10
2021/10/03 06:51:14;;;;;;;0.80;0.80;;;21.40;50.10;;;25.42;33.50;99667.28;5095092;28;20048;-10
2021/10/03 06:53:41;;;;;;;0.85;0.85;;;21.40;50.10;;;25.41;33.29;99666.47;5113764;28;20074;-10
2021/10/03 06:56:08;;;;;;;0.70;0.70;;;21.40;50.10;;;25.40;33.45;99669.28;5113318;28;20392;-9
2021/10/03 06:58:37;;;;;;;0.90;0.90;;;21.40;50.10;;;25.42;33.38;99672.66;5113271;28;20048;-10
2021/10/03 07:01:04;;;;;;;0.73;0.70;;;21.40;50.10;;;25.42;33.29;99668.13;5113300;28;20043;-10
2021/10/03 07:03:30;;;;;;;1.27;0.77;;;21.40;50.10;;;25.43;33.56;99677.84;5113214;28;20046;-10
2021/10/03 07:05:56;;;;;;;0.93;0.88;;;21.40;50.10;;;25.41;33.37;99661.09;5113616;28;20043;-10
2021/10/03 07:08:21;;;;;;;0.82;0.82;;;21.40;50.10;;;25.44;33.26;99674.19;5113555;28;20512;-10
2021/10/03 07:10:47;;;;;;;0.80;0.80;;;21.40;50.00;;;25.44;33.36;99673.31;5113192;28;20043;-9
2021/10/03 07:13:13;;;;;;;0.80;0.80;;;21.50;50.10;;;25.45;33.31;99675.84;5113254;28;20134;-9
2021/10/03 07:15:39;;;;;;;1.10;0.73;;;21.40;50.00;;;25.43;33.41;99671.66;5113351;28;20047;-10
2021/10/03 07:18:06;;;;;;;0.68;0.68;;;21.50;50.00;;;25.46;33.30;99682.03;5113031;28;20399;-10
2021/10/03 07:20:33;;;;;;;0.80;0.80;;;21.40;50.00;;;25.45;33.44;99678.53;5112937;28;20142;-10
2021/10/03 07:22:59;;;;;;;0.80;0.80;;;21.50;50.10;;;25.44;33.39;99676.00;5113288;28;20050;-10
2021/10/03 07:25:25;;;;;;;0.90;0.90;;;21.50;50.10;;;25.48;33.38;99682.75;5112880;28;20051;-10
2021/10/03 07:27:51;;;;;;;0.90;0.90;;;21.50;50.00;;;25.48;33.37;99688.94;5112864;28;20044;-10
2021/10/03 07:30:16;;;;;;;0.80;0.80;;;21.50;50.00;;;25.46;33.27;99684.72;5112918;28;20102;-10
2021/10/03 07:32:43;;;;;;;1.02;0.90;;;21.50;50.00;;;25.47;33.40;99687.22;5112836;28;20127;-10
2021/10/03 07:35:10;;;;;;;0.93;0.93;;;21.50;50.00;;;25.49;33.37;99695.13;5113203;28;20398;-10
2021/10/03 07:37:36;;;;;;;0.88;0.88;;;21.50;50.00;;;25.49;33.36;99698.66;5113200;28;20051;-10
2021/10/03 07:40:04;;;;;;;1.02;0.90;;;21.50;49.90;;;25.49;33.49;99695.13;5113123;28;20395;-10
2021/10/03 07:42:30;;;;;;;0.80;0.80;;;21.50;49.90;;;25.48;33.37;99705.00;5112688;28;20047;-10
2021/10/03 07:44:56;;;;;;;0.65;0.65;;;21.60;49.80;;;25.51;33.38;99711.88;5113036;28;20479;-10
2021/10/03 07:47:22;;;;;;;0.90;0.90;;;21.60;49.80;;;25.51;33.19;99715.38;5112745;28;20079;-10
2021/10/03 07:49:49;;;;;;;0.85;0.85;;;21.60;49.80;;;25.49;33.15;99703.16;5116622;28;20047;-10
2021/10/03 07:52:16;;;;;;;1.15;1.05;;;21.60;49.80;;;25.49;33.37;99708.50;5097986;28;20093;-10
2021/10/03 07:54:42;;;;;;;0.95;0.95;;;21.50;49.80;;;25.50;33.37;99707.50;5116261;28;20050;-10
2021/10/03 07:57:08;;;;;;;0.70;0.70;;;21.50;49.90;;;25.51;33.34;99715.38;5116748;28;20060;-10
2021/10/03 07:59:33;;;;;;;0.80;0.75;;;21.60;49.80;;;25.49;33.21;99719.19;5116175;28;20048;-10
2021/10/03 08:01:59;;;;;;;0.95;0.95;;;21.50;49.80;;;25.50;33.31;99715.53;5114981;28;20052;-10
2021/10/03 08:04:25;;;;;;;0.77;0.77;;;21.60;49.80;;;25.51;33.31;99720.75;5116094;28;20062;-10
2021/10/03 08:06:51;;;;;;;1.15;0.95;;;21.60;49.90;;;25.50;33.19;99708.34;5116048;28;20051;-10
2021/10/03 08:09:16;;;;;;;0.90;0.80;;;21.50;49.90;;;25.53;33.26;99723.28;5116316;28;20062;-10
2021/10/03 08:11:42;;;;;;;1.35;1.00;;;21.50;49.80;;;25.50;33.15;99712.88;5116300;28;20048;-10
2021/10/03 08:14:08;;;;;;;0.73;0.73;;;21.50;49.90;;;25.50;33.25;99713.69;5116223;28;20051;-10
2021/10/03 08:16:34;;;;;;;0.70;0.70;;;21.50;49.80;;;25.51;33.28;99706.53;5115770;28;20044;-10
2021/10/03 08:19:00;;;;;;;1.00;0.90;;;21.60;49.70;;;25.52;33.23;99706.34;5115648;28;20495;-10
2021/10/03 08:21:27;;;;;;;1.20;1.10;;;21.60;49.70;;;25.50;33.22;99704.84;5115881;28;20054;-10
2021/10/03 08:23:53;;;;;;;0.88;0.88;;;21.60;49.70;;;25.54;33.25;99716.06;5116307;28;20054;-10
2021/10/03 08:26:19;;;;;;;1.00;0.90;;;21.60;49.70;;;25.51;33.28;99712.72;5115670;28;20041;-10
2021/10/03 08:28:45;;;;;;;1.27;1.02;;;21.60;49.70;;;25.52;33.28;99716.22;5115730;28;20121;-10
2021/10/03 08:31:11;;;;;;;1.02;0.90;;;21.60;49.70;;;25.50;33.16;99705.66;5115555;28;20052;-10
2021/10/03 08:33:37;;;;;;;1.17;1.08;;;21.60;49.80;;;25.50;33.32;99703.00;5116154;28;20476;-10
2021/10/03 08:36:04;;;;;;;0.80;0.73;;;21.60;49.70;;;25.51;33.50;99701.19;5115630;28;20098;-10
2021/10/03 08:38:30;;;;;;;0.85;0.85;;;21.70;49.70;;;25.51;33.25;99699.34;5115560;28;20079;-10
2021/10/03 08:40:56;;;;;;;0.85;0.85;;;21.70;49.70;;;25.50;33.25;99702.16;5115408;28;20081;-10
2021/10/03 08:43:22;;;;;;;1.10;1.00;;;21.70;49.60;;;25.54;33.38;99708.03;5115494;28;20440;-10
2021/10/03 08:45:49;;;;;;;1.33;1.00;;;21.70;49.60;;;25.54;33.17;99700.84;5115447;28;20051;-10
2021/10/03 08:48:16;;;;;;;1.10;0.98;;;21.70;49.50;;;25.54;33.37;99703.53;5115616;28;20088;-10
2021/10/03 08:50:45;;;;;;;1.08;0.93;;;21.70;49.50;;;25.53;33.22;99701.88;5115239;28;20047;-10
2021/10/03 08:53:14;;;;;;;1.17;1.08;;;21.70;49.60;;;25.53;33.06;99701.88;5115691;28;20086;-10
2021/10/03 08:55:40;;;;;;;0.90;0.90;;;21.70;49.60;;;25.56;33.07;99700.69;5096916;28;20071;-10
2021/10/03 08:58:06;;;;;;;1.10;1.00;;;21.70;49.60;;;25.56;33.06;99712.25;5115766;28;20130;-10
2021/10/03 09:00:32;;;;;;;1.00;1.00;;;21.70;49.70;;;25.54;33.27;99708.88;5113844;28;20464;-10
2021/10/03 09:03:01;;;;;;;0.80;0.80;;;21.70;49.60;;;25.53;33.19;99717.91;5097016;28;20479;-10
2021/10/03 09:05:35;;;;;;;0.90;0.90;;;21.70;49.70;;;25.55;33.41;99715.94;5115101;28;20047;-10
2021/10/03 09:08:17;;;;;;;0.88;0.88;;;21.60;49.70;;;25.54;33.22;99713.41;5097217;28;20074;-10
2021/10/03 09:11:15;;;;;;;1.10;1.00;;;21.60;49.70;;;25.55;33.38;99718.59;5115449;28;20048;-10
2021/10/03 09:13:48;;;;;;;0.98;0.90;;;21.60;49.70;;;25.52;33.16;99724.25;5113872;28;20047;-10
2021/10/03 09:16:26;;;;;;;0.70;0.70;;;21.60;49.60;;;25.51;33.21;99726.09;5115087;28;20055;-10
2021/10/03 09:19:01;;;;;;;1.10;1.00;;;21.60;49.70;;;25.54;33.24;99732.97;5113830;28;20047;-10
2021/10/03 09:21:30;;;;;;;1.05;0.85;;;21.60;49.70;;;25.53;33.28;99736.66;5114894;28;20169;-10
2021/10/03 09:24:16;;;;;;;0.90;0.88;;;21.60;49.80;;;25.55;33.17;99726.63;5114952;28;20184;-10
2021/10/03 09:27:02;;;;;;;0.80;0.80;;;21.60;49.80;;;25.53;33.32;99725.94;5115234;28;20403;-10
2021/10/03 09:29:37;;;;;;;1.08;0.98;;;21.60;49.70;;;25.52;33.35;99725.09;5114826;28;20044;-10
2021/10/03 09:32:21;;;;;;;1.15;0.93;;;21.70;49.80;;;25.54;33.42;99724.94;5114732;28;20067;-10
2021/10/03 09:34:51;;;;;;;0.80;0.80;;;21.60;49.60;;;25.52;33.26;99721.56;5115137;28;20083;-10
2021/10/03 09:37:24;;;;;;;1.08;0.98;;;21.70;49.60;;;25.56;33.23;99722.97;5114497;28;20138;-10
2021/10/03 09:40:12;;;;;;;0.90;0.90;;;21.70;49.70;;;25.54;33.35;99729.47;5114652;28;20125;-10
2021/10/03 09:42:40;;;;;;;1.00;0.80;;;21.70;49.70;;;25.55;33.11;99734.66;5114760;28;20036;-10
2021/10/03 09:45:18;;;;;;;0.98;0.98;;;21.60;49.70;;;25.54;33.22;99743.66;5114868;28;20058;-10
2021/10/03 09:47:45;;;;;;;1.13;1.00;;;21.60;49.70;;;25.54;33.24;99734.81;5114395;28;20062;-10
2021/10/03 09:50:14;;;;;;;0.95;0.90;;;21.60;49.80;;;25.56;33.26;99746.19;5114438;28;20104;-10
2021/10/03 09:52:41;;;;;;;1.00;0.90;;;21.60;49.80;;;25.57;33.26;99738.03;5114321;28;20135;-10
2021/10/03 09:55:13;;;;;;;1.20;1.00;;;21.60;49.70;;;25.57;33.21;99754.06;5114639;28;20062;-10
2021/10/03 09:57:41;;;;;;;0.75;0.75;;;21.60;49.70;;;25.57;33.30;99750.56;5112617;28;20051;-10
2021/10/03 10:00:08;;;;;;;0.98;0.98;;;21.60;49.80;;;25.58;33.24;99758.44;5114162;28;20052;-10
2021/10/03 10:02:35;;;;;;;1.00;1.00;;;21.60;49.80;;;25.57;33.21;99750.56;5114451;28;20470;-10
2021/10/03 10:05:00;;;;;;;0.80;0.80;;;21.60;49.80;;;25.58;33.25;99754.94;5114230;28;20039;-10
2021/10/03 10:07:27;;;;;;;1.05;0.85;;;21.60;49.70;;;25.58;33.31;99760.28;5114246;28;20054;-10
2021/10/03 10:09:54;;;;;;;1.15;1.05;;;21.70;49.70;;;25.57;33.17;99759.44;5093752;28;20392;-10
2021/10/03 10:12:22;;;;;;;1.13;1.02;;;21.70;49.70;;;25.57;33.30;99767.47;5113569;28;20498;-10
2021/10/03 10:15:01;;;;;;;0.90;0.90;;;21.60;49.70;;;25.56;33.30;99757.75;5095845;28;20051;-10
2021/10/03 10:17:39;;;;;;;1.08;1.00;;;21.70;49.80;;;25.59;33.18;99762.78;5113954;28;20053;-10
2021/10/03 10:20:17;;;;;;;1.23;1.13;;;21.60;49.70;;;25.60;33.33;99761.81;5114570;28;20047;-10